Wetterdaten: Woche 27.06.11 - 03.07.11 (KW26)
Datum Zeit Temperatur Luftfeuchte Luftdruck Niederschlag Windrichtung Sonnenschein Solar Wind
27.06.2011 00:00 17,3 C 87 % 1019,7 hPa 0,0 l/m O-NO 0,00 h 0 W/m 2,9 km/h (1 Bft)
27.06.2011 01:00 16,6 C 90 % 1019,5 hPa 0,0 l/m O-NO 0,00 h 0 W/m 4,8 km/h (1 Bft)
27.06.2011 02:00 15,9 C 92 % 1019,2 hPa 0,0 l/m NO 0,00 h 0 W/m 5,2 km/h (1 Bft)
27.06.2011 03:00 15,2 C 94 % 1019,1 hPa 0,0 l/m N-NO 0,00 h 0 W/m 3,7 km/h (1 Bft)
27.06.2011 04:00 14,6 C 96 % 1019,0 hPa 0,0 l/m N-NO 0,00 h 0 W/m 2,9 km/h (1 Bft)
27.06.2011 05:00 14,4 C 96 % 1018,8 hPa 0,0 l/m N-NO 0,00 h 9 W/m 3,5 km/h (1 Bft)
27.06.2011 06:00 14,7 C 97 % 1018,7 hPa 0,0 l/m N-NO 0,58 h 84 W/m 3,9 km/h (1 Bft)
27.06.2011 07:00 16,4 C 92 % 1018,6 hPa 0,0 l/m N-NO 1,00 h 245 W/m 2,9 km/h (1 Bft)
27.06.2011 08:00 18,6 C 83 % 1018,4 hPa 0,0 l/m N-NO 1,00 h 414 W/m 5,6 km/h (1 Bft)
27.06.2011 09:00 21,3 C 74 % 1018,3 hPa 0,0 l/m O-NO 1,00 h 586 W/m 6,3 km/h (2 Bft)
27.06.2011 10:00 23,6 C 66 % 1018,0 hPa 0,0 l/m O 1,00 h 737 W/m 7,4 km/h (2 Bft)
27.06.2011 11:00 25,9 C 59 % 1017,6 hPa 0,0 l/m O 1,00 h 856 W/m 9,9 km/h (2 Bft)
27.06.2011 12:00 27,6 C 49 % 1017,2 hPa 0,0 l/m O-SO 0,92 h 868 W/m 11,2 km/h (2 Bft)
27.06.2011 13:00 28,8 C 43 % 1016,6 hPa 0,0 l/m O-SO 0,67 h 715 W/m 13,0 km/h (3 Bft)
27.06.2011 14:00 29,6 C 39 % 1016,0 hPa 0,0 l/m SO 1,00 h 927 W/m 11,0 km/h (2 Bft)
27.06.2011 15:00 30,2 C 38 % 1015,5 hPa 0,0 l/m SO 1,00 h 847 W/m 9,9 km/h (2 Bft)
27.06.2011 16:00 30,5 C 38 % 1015,1 hPa 0,0 l/m O-SO 1,00 h 732 W/m 10,6 km/h (2 Bft)
27.06.2011 17:00 30,5 C 38 % 1014,8 hPa 0,0 l/m O-SO 1,00 h 589 W/m 9,3 km/h (2 Bft)
27.06.2011 18:00 30,2 C 38 % 1014,5 hPa 0,0 l/m O-SO 1,00 h 422 W/m 10,9 km/h (2 Bft)
27.06.2011 19:00 28,7 C 44 % 1014,3 hPa 0,0 l/m O-SO 1,00 h 226 W/m 12,9 km/h (3 Bft)
27.06.2011 20:00 26,4 C 52 % 1014,4 hPa 0,0 l/m O 0,08 h 46 W/m 7,2 km/h (2 Bft)
27.06.2011 21:00 23,0 C 68 % 1014,7 hPa 0,0 l/m N 0,00 h 7 W/m 1,1 km/h (0 Bft)
27.06.2011 22:00 21,0 C 74 % 1015,1 hPa 0,0 l/m N 0,00 h 0 W/m 1,1 km/h (0 Bft)
27.06.2011 23:00 19,8 C 78 % 1015,1 hPa 0,0 l/m N 0,00 h 0 W/m 0,7 km/h (0 Bft)
28.06.2011 00:00 19,1 C 80 % 1015,3 hPa 0,0 l/m O-NO 0,00 h 0 W/m 2,9 km/h (1 Bft)
28.06.2011 01:00 18,7 C 80 % 1015,0 hPa 0,0 l/m N-NO 0,00 h 0 W/m 4,0 km/h (1 Bft)
28.06.2011 02:00 17,9 C 83 % 1014,8 hPa 0,0 l/m N 0,00 h 0 W/m 3,3 km/h (1 Bft)
28.06.2011 03:00 17,5 C 84 % 1014,6 hPa 0,0 l/m N 0,00 h 0 W/m 4,7 km/h (1 Bft)
28.06.2011 04:00 16,8 C 87 % 1014,5 hPa 0,0 l/m N 0,00 h 0 W/m 3,1 km/h (1 Bft)
28.06.2011 05:00 16,1 C 88 % 1014,5 hPa 0,0 l/m N 0,00 h 9 W/m 4,5 km/h (1 Bft)
28.06.2011 06:00 16,4 C 87 % 1014,6 hPa 0,0 l/m N 0,33 h 76 W/m 6,7 km/h (2 Bft)
28.06.2011 07:00 18,1 C 82 % 1015,0 hPa 0,0 l/m N 1,00 h 235 W/m 6,0 km/h (2 Bft)
28.06.2011 08:00 20,6 C 74 % 1014,9 hPa 0,0 l/m N 1,00 h 395 W/m 5,7 km/h (1 Bft)
28.06.2011 09:00 23,1 C 67 % 1014,8 hPa 0,0 l/m O-SO 1,00 h 567 W/m 8,6 km/h (2 Bft)
28.06.2011 10:00 25,6 C 57 % 1014,6 hPa 0,0 l/m O 1,00 h 673 W/m 10,3 km/h (2 Bft)
28.06.2011 11:00 27,4 C 50 % 1014,3 hPa 0,0 l/m O 1,00 h 829 W/m 11,6 km/h (2 Bft)
28.06.2011 12:00 28,7 C 41 % 1014,1 hPa 0,0 l/m NO 0,92 h 852 W/m 12,0 km/h (2 Bft)
28.06.2011 13:00 29,7 C 38 % 1013,6 hPa 0,0 l/m O-SO 0,67 h 704 W/m 12,3 km/h (3 Bft)
28.06.2011 14:00 30,2 C 37 % 1013,0 hPa 0,0 l/m O-NO 1,00 h 907 W/m 11,7 km/h (2 Bft)
28.06.2011 15:00 30,7 C 37 % 1012,7 hPa 0,0 l/m SO 1,00 h 839 W/m 11,9 km/h (2 Bft)
28.06.2011 16:00 30,8 C 37 % 1012,2 hPa 0,0 l/m O-SO 1,00 h 727 W/m 16,1 km/h (3 Bft)
28.06.2011 17:00 30,5 C 37 % 1011,9 hPa 0,0 l/m O-SO 1,00 h 492 W/m 14,4 km/h (3 Bft)
28.06.2011 18:00 30,1 C 36 % 1011,7 hPa 0,0 l/m O-SO 1,00 h 385 W/m 14,5 km/h (3 Bft)
28.06.2011 19:00 28,5 C 39 % 1011,4 hPa 0,0 l/m O-SO 0,75 h 202 W/m 13,6 km/h (3 Bft)
28.06.2011 20:00 26,1 C 45 % 1010,9 hPa 0,0 l/m O 0,17 h 50 W/m 9,3 km/h (2 Bft)
28.06.2011 21:00 23,8 C 53 % 1010,6 hPa 0,0 l/m O 0,00 h 10 W/m 3,9 km/h (1 Bft)
28.06.2011 22:00 20,3 C 68 % 1011,3 hPa 0,0 l/m N 0,00 h 0 W/m 1,9 km/h (1 Bft)
28.06.2011 23:00 19,6 C 71 % 1011,4 hPa 0,0 l/m N-NW 0,00 h 0 W/m 3,6 km/h (1 Bft)
29.06.2011 00:00 18,9 C 73 % 1011,6 hPa 0,0 l/m N-NW 0,00 h 0 W/m 3,5 km/h (1 Bft)
29.06.2011 01:00 17,5 C 81 % 1011,7 hPa 0,0 l/m N-NW 0,00 h 0 W/m 1,7 km/h (1 Bft)
29.06.2011 02:00 17,1 C 81 % 1011,5 hPa 0,0 l/m N-NW 0,00 h 0 W/m 8,2 km/h (2 Bft)
29.06.2011 03:00 16,6 C 82 % 1011,5 hPa 0,0 l/m N-NW 0,00 h 0 W/m 6,7 km/h (2 Bft)
29.06.2011 04:00 16,1 C 83 % 1011,4 hPa 0,0 l/m N-NW 0,00 h 0 W/m 6,4 km/h (2 Bft)
29.06.2011 05:00 15,1 C 87 % 1011,4 hPa 0,0 l/m N 0,00 h 9 W/m 0,4 km/h (0 Bft)
29.06.2011 06:00 15,4 C 88 % 1011,6 hPa 0,0 l/m N 0,25 h 73 W/m 0,9 km/h (0 Bft)
29.06.2011 07:00 17,7 C 81 % 1011,7 hPa 0,0 l/m N 1,00 h 222 W/m 2,1 km/h (1 Bft)
29.06.2011 08:00 20,4 C 72 % 1011,5 hPa 0,0 l/m N 1,00 h 384 W/m 2,4 km/h (1 Bft)
29.06.2011 09:00 22,4 C 66 % 1011,8 hPa 0,0 l/m N-NW 1,00 h 547 W/m 5,3 km/h (1 Bft)
29.06.2011 10:00 24,3 C 60 % 1012,1 hPa 0,0 l/m N 0,75 h 600 W/m 6,1 km/h (2 Bft)
29.06.2011 11:00 26,5 C 52 % 1012,2 hPa 0,0 l/m NW 1,00 h 717 W/m 7,5 km/h (2 Bft)
29.06.2011 12:00 26,7 C 57 % 1012,1 hPa 0,0 l/m SW 0,67 h 541 W/m 16,9 km/h (3 Bft)
29.06.2011 13:00 25,8 C 64 % 1012,0 hPa 0,0 l/m SW 0,17 h 299 W/m 20,1 km/h (4 Bft)
29.06.2011 14:00 20,4 C 81 % 1012,9 hPa 19,6 l/m W-SW 0,00 h 18 W/m 21,3 km/h (4 Bft)
29.06.2011 15:00 15,4 C 92 % 1014,2 hPa 44,2 l/m NW 0,00 h 16 W/m 14,1 km/h (3 Bft)
29.06.2011 16:00 17,2 C 94 % 1013,9 hPa 1,6 l/m W-NW 0,00 h 35 W/m 12,9 km/h (3 Bft)
29.06.2011 17:00 18,1 C 95 % 1013,1 hPa 0,0 l/m SW 0,00 h 141 W/m 4,1 km/h (1 Bft)
29.06.2011 18:00 19,1 C 94 % 1013,0 hPa 0,0 l/m SW 0,00 h 138 W/m 3,9 km/h (1 Bft)
29.06.2011 19:00 18,9 C 93 % 1013,4 hPa 0,0 l/m SW 0,00 h 48 W/m 4,4 km/h (1 Bft)
29.06.2011 20:00 17,9 C 93 % 1014,0 hPa 0,0 l/m W-NW 0,00 h 14 W/m 5,5 km/h (1 Bft)
29.06.2011 21:00 17,4 C 93 % 1014,2 hPa 0,0 l/m W-NW 0,00 h 7 W/m 3,7 km/h (1 Bft)
29.06.2011 22:00 16,8 C 97 % 1014,3 hPa 0,0 l/m N 0,00 h 0 W/m 2,1 km/h (1 Bft)
29.06.2011 23:00 17,0 C 96 % 1014,3 hPa 0,0 l/m NW 0,00 h 0 W/m 4,4 km/h (1 Bft)
30.06.2011 00:00 17,1 C 94 % 1014,1 hPa 0,0 l/m NW 0,00 h 0 W/m 6,4 km/h (2 Bft)
30.06.2011 01:00 16,7 C 94 % 1014,0 hPa 0,0 l/m NW 0,00 h 0 W/m 10,9 km/h (2 Bft)
30.06.2011 02:00 15,7 C 94 % 1014,2 hPa 3,8 l/m N-NW 0,00 h 0 W/m 14,6 km/h (3 Bft)
30.06.2011 03:00 14,6 C 96 % 1014,4 hPa 4,2 l/m N-NW 0,00 h 0 W/m 16,1 km/h (3 Bft)
30.06.2011 04:00 13,7 C 96 % 1015,0 hPa 4,4 l/m NW 0,00 h 0 W/m 18,1 km/h (3 Bft)
30.06.2011 05:00 13,2 C 97 % 1015,9 hPa 3,4 l/m N 0,00 h 0 W/m 11,0 km/h (2 Bft)
30.06.2011 06:00 12,9 C 96 % 1016,5 hPa 1,0 l/m N-NW 0,00 h 8 W/m 11,0 km/h (2 Bft)
30.06.2011 07:00 12,8 C 96 % 1017,0 hPa 0,2 l/m W-NW 0,00 h 24 W/m 9,9 km/h (2 Bft)
30.06.2011 08:00 12,9 C 96 % 1017,9 hPa 0,0 l/m W-NW 0,00 h 49 W/m 7,6 km/h (2 Bft)
30.06.2011 09:00 13,5 C 94 % 1018,6 hPa 0,0 l/m W 0,00 h 130 W/m 9,9 km/h (2 Bft)
30.06.2011 10:00 14,2 C 87 % 1018,9 hPa 0,0 l/m W 0,42 h 419 W/m 13,8 km/h (3 Bft)
30.06.2011 11:00 15,9 C 71 % 1019,2 hPa 0,0 l/m W 0,67 h 651 W/m 13,2 km/h (3 Bft)
30.06.2011 12:00 16,8 C 65 % 1019,4 hPa 0,0 l/m W-NW 0,50 h 676 W/m 14,1 km/h (3 Bft)
30.06.2011 13:00 17,7 C 61 % 1019,4 hPa 0,0 l/m W-NW 0,33 h 557 W/m 14,4 km/h (3 Bft)
30.06.2011 14:00 18,0 C 57 % 1019,4 hPa 0,0 l/m N 0,42 h 497 W/m 14,9 km/h (3 Bft)
30.06.2011 15:00 18,0 C 59 % 1019,3 hPa 0,0 l/m NW 0,25 h 392 W/m 12,9 km/h (3 Bft)
30.06.2011 16:00 17,8 C 57 % 1019,1 hPa 0,0 l/m N-NO 0,08 h 234 W/m 10,5 km/h (2 Bft)
30.06.2011 17:00 18,1 C 54 % 1018,9 hPa 0,0 l/m NW 0,17 h 245 W/m 7,1 km/h (2 Bft)
30.06.2011 18:00 17,6 C 56 % 1018,7 hPa 0,0 l/m N 0,00 h 91 W/m 5,3 km/h (1 Bft)
30.06.2011 19:00 17,3 C 58 % 1018,9 hPa 0,0 l/m N 0,00 h 54 W/m 3,2 km/h (1 Bft)
30.06.2011 20:00 16,6 C 60 % 1019,3 hPa 0,0 l/m NO 0,00 h 9 W/m 6,4 km/h (2 Bft)
30.06.2011 21:00 15,4 C 65 % 1019,7 hPa 0,0 l/m N-NO 0,00 h 6 W/m 7,6 km/h (2 Bft)
30.06.2011 22:00 14,1 C 71 % 1019,8 hPa 0,0 l/m NO 0,00 h 0 W/m 2,9 km/h (1 Bft)
30.06.2011 23:00 13,0 C 78 % 1019,8 hPa 0,0 l/m N 0,00 h 0 W/m 1,6 km/h (1 Bft)
01.07.2011 00:00 13,0 C 80 % 1019,7 hPa 0,0 l/m N 0,00 h 0 W/m 1,2 km/h (1 Bft)
01.07.2011 01:00 12,4 C 81 % 1019,2 hPa 0,0 l/m N 0,00 h 0 W/m 2,7 km/h (1 Bft)
01.07.2011 02:00 11,9 C 84 % 1019,0 hPa 0,0 l/m N 0,00 h 0 W/m 0,7 km/h (0 Bft)
01.07.2011 03:00 10,7 C 89 % 1018,9 hPa 0,0 l/m N 0,00 h 0 W/m 0,7 km/h (0 Bft)
01.07.2011 04:00 9,7 C 92 % 1018,8 hPa 0,0 l/m N 0,00 h 0 W/m 0,4 km/h (0 Bft)
01.07.2011 05:00 9,0 C 93 % 1018,9 hPa 0,0 l/m N 0,00 h 10 W/m 0,1 km/h (0 Bft)
01.07.2011 06:00 9,4 C 92 % 1018,9 hPa 0,0 l/m N 0,00 h 54 W/m 0,3 km/h (0 Bft)
01.07.2011 07:00 11,2 C 89 % 1018,8 hPa 0,0 l/m N 0,92 h 233 W/m 1,3 km/h (1 Bft)
01.07.2011 08:00 14,3 C 75 % 1018,8 hPa 0,0 l/m N-NW 0,92 h 350 W/m 2,5 km/h (1 Bft)
01.07.2011 09:00 15,4 C 65 % 1018,7 hPa 0,0 l/m NW 0,00 h 233 W/m 5,6 km/h (1 Bft)
01.07.2011 10:00 16,4 C 59 % 1018,3 hPa 0,0 l/m W 0,25 h 390 W/m 11,2 km/h (2 Bft)
01.07.2011 11:00 15,5 C 66 % 1018,0 hPa 0,8 l/m W 0,17 h 273 W/m 11,9 km/h (2 Bft)
01.07.2011 12:00 14,8 C 72 % 1018,3 hPa 0,0 l/m W 0,25 h 299 W/m 18,1 km/h (3 Bft)
01.07.2011 13:00 14,4 C 72 % 1018,5 hPa 0,6 l/m N-NO 0,33 h 463 W/m 18,0 km/h (3 Bft)
01.07.2011 14:00 16,3 C 54 % 1018,9 hPa 0,0 l/m N 0,67 h 713 W/m 28,0 km/h (4 Bft)
01.07.2011 15:00 15,5 C 57 % 1019,2 hPa 0,0 l/m N-NW 0,67 h 578 W/m 21,3 km/h (4 Bft)
01.07.2011 16:00 14,0 C 64 % 1019,4 hPa 0,0 l/m N-NW 0,25 h 361 W/m 23,1 km/h (4 Bft)
01.07.2011 17:00 15,4 C 58 % 1019,2 hPa 0,0 l/m N 0,92 h 620 W/m 18,8 km/h (3 Bft)
01.07.2011 18:00 15,3 C 58 % 1019,0 hPa 0,0 l/m N 0,33 h 259 W/m 16,4 km/h (3 Bft)
01.07.2011 19:00 15,4 C 55 % 1019,0 hPa 0,0 l/m N-NO 1,00 h 255 W/m 12,9 km/h (3 Bft)
01.07.2011 20:00 14,3 C 59 % 1018,8 hPa 0,0 l/m N-NO 0,42 h 58 W/m 8,7 km/h (2 Bft)
01.07.2011 21:00 11,7 C 78 % 1018,9 hPa 0,0 l/m N 0,00 h 8 W/m 1,5 km/h (1 Bft)
01.07.2011 22:00 10,6 C 80 % 1018,7 hPa 0,0 l/m N 0,00 h 0 W/m 2,1 km/h (1 Bft)
01.07.2011 23:00 9,3 C 88 % 1018,8 hPa 0,0 l/m N 0,00 h 0 W/m 0,7 km/h (0 Bft)
02.07.2011 00:00 8,6 C 91 % 1018,7 hPa 0,0 l/m N 0,00 h 0 W/m 0,8 km/h (0 Bft)
02.07.2011 01:00 7,9 C 91 % 1018,5 hPa 0,0 l/m N 0,00 h 0 W/m 0,4 km/h (0 Bft)
02.07.2011 02:00 7,4 C 93 % 1018,2 hPa 0,0 l/m N 0,00 h 0 W/m 1,1 km/h (0 Bft)
02.07.2011 03:00 7,4 C 93 % 1017,8 hPa 0,0 l/m N 0,00 h 0 W/m 0,3 km/h (0 Bft)
02.07.2011 04:00 7,4 C 93 % 1017,3 hPa 0,0 l/m N-NO 0,00 h 0 W/m 2,4 km/h (1 Bft)
02.07.2011 05:00 6,8 C 94 % 1016,8 hPa 0,0 l/m N 0,00 h 8 W/m 0,1 km/h (0 Bft)
02.07.2011 06:00 6,7 C 96 % 1016,4 hPa 0,0 l/m N 0,17 h 68 W/m 0,4 km/h (0 Bft)
02.07.2011 07:00 8,7 C 92 % 1016,2 hPa 0,0 l/m N-NW 1,00 h 213 W/m 3,5 km/h (1 Bft)
02.07.2011 08:00 11,2 C 82 % 1015,7 hPa 0,0 l/m N 1,00 h 380 W/m 6,7 km/h (2 Bft)
02.07.2011 09:00 12,8 C 74 % 1015,6 hPa 0,0 l/m N-NO 1,00 h 529 W/m 8,2 km/h (2 Bft)
02.07.2011 10:00 14,1 C 66 % 1015,5 hPa 0,0 l/m NW 0,42 h 442 W/m 9,4 km/h (2 Bft)
02.07.2011 11:00 14,6 C 62 % 1015,3 hPa 0,0 l/m N 0,42 h 596 W/m 12,1 km/h (2 Bft)
02.07.2011 12:00 15,3 C 58 % 1015,1 hPa 0,0 l/m N 0,42 h 578 W/m 9,9 km/h (2 Bft)
02.07.2011 13:00 15,6 C 57 % 1014,6 hPa 0,0 l/m N-NW 0,33 h 523 W/m 9,3 km/h (2 Bft)
02.07.2011 14:00 16,7 C 53 % 1013,9 hPa 0,0 l/m W-NW 0,50 h 572 W/m 9,9 km/h (2 Bft)
02.07.2011 15:00 16,9 C 50 % 1013,5 hPa 0,0 l/m W-NW 0,42 h 550 W/m 10,7 km/h (2 Bft)
02.07.2011 16:00 16,7 C 48 % 1013,1 hPa 0,0 l/m N 0,17 h 185 W/m 8,6 km/h (2 Bft)
02.07.2011 17:00 17,0 C 47 % 1012,8 hPa 0,0 l/m NO 0,33 h 333 W/m 9,9 km/h (2 Bft)
02.07.2011 18:00 16,9 C 47 % 1012,9 hPa 0,0 l/m NO 0,17 h 213 W/m 14,4 km/h (3 Bft)
02.07.2011 19:00 16,1 C 50 % 1013,0 hPa 0,0 l/m N-NO 0,33 h 136 W/m 11,6 km/h (2 Bft)
02.07.2011 20:00 14,9 C 55 % 1013,2 hPa 0,0 l/m N-NO 0,00 h 36 W/m 10,7 km/h (2 Bft)
02.07.2011 21:00 12,7 C 65 % 1013,5 hPa 0,0 l/m N-NO 0,00 h 6 W/m 3,6 km/h (1 Bft)
02.07.2011 22:00 11,4 C 73 % 1014,1 hPa 0,0 l/m N 0,00 h 0 W/m 1,6 km/h (1 Bft)
02.07.2011 23:00 11,0 C 73 % 1014,2 hPa 0,0 l/m N-NO 0,00 h 0 W/m 3,7 km/h (1 Bft)
03.07.2011 00:00 10,6 C 75 % 1013,9 hPa 0,0 l/m N 0,00 h 0 W/m 1,3 km/h (1 Bft)
03.07.2011 01:00 9,9 C 80 % 1013,5 hPa 0,0 l/m N 0,00 h 0 W/m 0,8 km/h (0 Bft)
03.07.2011 02:00 9,3 C 84 % 1013,3 hPa 0,0 l/m N 0,00 h 0 W/m 0,0 km/h (0 Bft)
03.07.2011 03:00 9,0 C 85 % 1013,1 hPa 0,0 l/m N 0,00 h 0 W/m 0,1 km/h (0 Bft)
03.07.2011 04:00 8,5 C 88 % 1013,0 hPa 0,0 l/m N 0,00 h 0 W/m 0,1 km/h (0 Bft)
03.07.2011 05:00 8,9 C 90 % 1012,8 hPa 0,0 l/m N 0,00 h 7 W/m 0,4 km/h (0 Bft)
03.07.2011 06:00 9,0 C 92 % 1012,7 hPa 0,0 l/m N 0,00 h 35 W/m 1,5 km/h (1 Bft)
03.07.2011 07:00 10,2 C 88 % 1012,6 hPa 0,0 l/m N 0,00 h 77 W/m 1,1 km/h (0 Bft)
03.07.2011 08:00 12,4 C 75 % 1012,6 hPa 0,0 l/m W-NW 0,17 h 211 W/m 9,5 km/h (2 Bft)
03.07.2011 09:00 14,3 C 64 % 1012,7 hPa 0,0 l/m W-NW 0,92 h 536 W/m 11,2 km/h (2 Bft)
03.07.2011 10:00 15,3 C 60 % 1012,8 hPa 0,0 l/m W-NW 0,50 h 578 W/m 12,8 km/h (3 Bft)
03.07.2011 11:00 16,3 C 57 % 1012,5 hPa 0,0 l/m W-SW 0,08 h 329 W/m 10,5 km/h (2 Bft)
03.07.2011 12:00 18,0 C 50 % 1012,4 hPa 0,0 l/m W-SW 0,83 h 834 W/m 12,5 km/h (3 Bft)
03.07.2011 13:00 19,0 C 49 % 1012,3 hPa 0,0 l/m W-NW 0,50 h 544 W/m 12,0 km/h (2 Bft)
03.07.2011 14:00 19,6 C 48 % 1012,3 hPa 0,0 l/m SW 0,33 h 462 W/m 11,3 km/h (2 Bft)
03.07.2011 15:00 19,7 C 49 % 1012,2 hPa 0,0 l/m N-NO 0,00 h 351 W/m 10,6 km/h (2 Bft)
03.07.2011 16:00 19,8 C 48 % 1012,3 hPa 0,0 l/m O-NO 0,00 h 234 W/m 10,9 km/h (2 Bft)
03.07.2011 17:00 20,0 C 49 % 1012,3 hPa 0,0 l/m O-NO 0,67 h 434 W/m 9,7 km/h (2 Bft)
03.07.2011 18:00 20,0 C 48 % 1012,1 hPa 0,0 l/m O 0,50 h 301 W/m 8,7 km/h (2 Bft)
03.07.2011 19:00 20,2 C 50 % 1012,0 hPa 0,0 l/m O 1,00 h 256 W/m 8,3 km/h (2 Bft)
03.07.2011 20:00 18,8 C 55 % 1012,1 hPa 0,0 l/m O 0,08 h 43 W/m 7,9 km/h (2 Bft)
03.07.2011 21:00 16,8 C 66 % 1012,3 hPa 0,0 l/m NO 0,08 h 9 W/m 5,2 km/h (1 Bft)
03.07.2011 22:00 14,0 C 80 % 1012,6 hPa 0,0 l/m N 0,00 h 0 W/m 0,1 km/h (0 Bft)
03.07.2011 23:00 12,7 C 86 % 1012,6 hPa 0,0 l/m N 0,00 h 0 W/m 0,8 km/h (0 Bft)
Min-Datum _ 02.07.11 28.06.11 28.06.11 - - - - 27.06.11
_ Min-Zeit 05:40 13:45 21:25 - - - - 00:20
Minimum _ 6,4 C 34 % 1010,4 hPa - - - - 0,0 km/h (0 Bft)
Max-Datum _ 28.06.11 27.06.11 27.06.11 29.06.11 - 27.06.11 03.07.11 01.07.11
_ Max-Zeit 16:35 05:30 00:00 15:15 - 06:25 12:50 14:45
Maximum _ 31,2 C 97 % 1020,0 hPa 44,2 l/m - 0,08 h 1143 W/m 38,6 km/h
N-NO (5 Bft)
Durchschnitt _ 17,3 C 71 % 1015,4 hPa #83,8 l/m N-NW #54:10 h 338 W/m 7,5 km/h (2 Bft)